OOCL Nagoya — VRFX8 — position and weather

sailwx.info

Track history (hours):
 
Tides and Currents Weather Stations Pressure Air Temp Water Temp Dewpoint Dewpoint Depression Visibility Wind Speed Wind Dir Waves Ship Positions

OOCL Nagoya

Last reported at 2016-Feb-10 17:12 UTC. Time now 2016-Feb-12 01:26 UTC.
Position N 22°05' E 114°21'.

Length 261 m; draft 11.5 m.

Type: Cargo ship. MMSI: 477627900.

Date/timePositionNaut miles runAvg speedWind from/ knotsBaromVisibWave heightAir tempDewpointWater temp
2016-Feb-10 17:12N 22°05' E 114°21'1115.1
2016-Feb-10 16:29N 22°11' E 114°11'1213.0
2016-Feb-10 15:33N 22°21' E 114°04'6 0.4
2016-Feb-10 02:29N 22°21' E 113°58'8 9.2
2016-Feb-10 01:33N 22°20' E 114°07'0 0.3
2016-Feb-10 00:23N 22°21' E 114°07'0 0.0
2016-Feb-09 23:32N 22°21' E 114°07'0 0.0
2016-Feb-09 22:32N 22°21' E 114°07'0 0.0
2016-Feb-09 21:20N 22°21' E 114°07'0 0.0
2016-Feb-09 20:29N 22°21' E 114°07'0 0.1
2016-Feb-09 19:32N 22°21' E 114°07'0 0.1
2016-Feb-09 18:32N 22°21' E 114°07'0 0.0
2016-Feb-09 12:29N 22°21' E 114°07'0 0.0
2016-Feb-09 11:08N 22°21' E 114°07'0 0.0
2016-Feb-09 10:32N 22°21' E 114°07'4 3.9
2016-Feb-09 09:33N 22°17' E 114°06'1110.5
2016-Feb-09 08:33N 22°09' E 114°14'1313.3
2016-Feb-09 07:32N 22°09' E 114°29'10213.5
2016-Feb-09 00:00N 22°18' E 116°18'19714.1 020 / 151008.510.8 1.017.013.720.0
2016-Feb-08 10:04N 22°31' E 119°50'713.9
2016-Feb-08 09:33N 22°31' E 119°58'1414.2
2016-Feb-08 08:33N 22°33' E 120°13'5 4.3
2016-Feb-08 07:19N 22°34' E 120°19'0 0.0
2016-Feb-08 06:31N 22°34' E 120°19'0 0.0
2016-Feb-08 05:25N 22°34' E 120°19'0 0.0
2016-Feb-08 04:31N 22°34' E 120°19'0 0.0
2016-Feb-08 03:31N 22°34' E 120°19'0 0.0
2016-Feb-08 02:25N 22°34' E 120°19'0 0.0
2016-Feb-08 01:19N 22°34' E 120°19'0 0.0
2016-Feb-08 00:31N 22°34' E 120°19'0 0.2
2016-Feb-07 23:33N 22°34' E 120°19'5 5.4
2016-Feb-07 22:33N 22°33' E 120°13'1110.7
2016-Feb-07 21:33N 22°42' E 120°07'1413.6
2016-Feb-07 20:34N 22°54' E 120°00'21014.4
2016-Feb-07 06:00N 26°00' E 121°48'   320 / 391009.510.8 1.018.0 7.017.0
2016-Feb-04 11:32N 33°58' E 134°55'1313.8
2016-Feb-04 10:33N 34°11' E 134°57'1313.4
2016-Feb-04 09:33N 34°24' E 135°02'1716.9
2016-Feb-04 08:33N 34°36' E 135°16'4 3.6
2016-Feb-04 07:28N 34°39' E 135°15'0 0.0
2016-Feb-04 06:28N 34°39' E 135°15'0 0.0
2016-Feb-04 05:28N 34°39' E 135°15'0 0.0
2016-Feb-04 04:28N 34°39' E 135°15'0 0.0
2016-Feb-04 03:28N 34°39' E 135°15'0 0.0
2016-Feb-04 02:16N 34°39' E 135°15'0 0.0
2016-Feb-04 01:28N 34°39' E 135°15'0 0.0
2016-Feb-04 00:28N 34°39' E 135°15'0 0.0
2016-Feb-03 23:28N 34°39' E 135°15'1 1.2
2016-Feb-03 22:33N 34°39' E 135°16'1111.4
2016-Feb-03 21:33N 34°29' E 135°10'1716.5
2016-Feb-03 20:33N 34°15' E 134°59'1313.0
2016-Feb-03 19:33N 34°02' E 134°58'241 5.3
2016-Feb-01 22:23N 35°05' E 139°40'1214.3
2016-Feb-01 21:33N 35°16' E 139°46'1212.1
2016-Feb-01 20:34N 35°28' E 139°48'8 8.4
2016-Feb-01 19:33N 35°36' E 139°47'0 0.2
2016-Feb-01 18:31N 35°36' E 139°47'0 0.0
2016-Feb-01 17:31N 35°36' E 139°47'0 0.0
2016-Feb-01 16:31N 35°36' E 139°47'0 0.0
2016-Feb-01 15:31N 35°36' E 139°47'0 0.0
2016-Feb-01 14:31N 35°36' E 139°47'0 0.0
2016-Feb-01 13:31N 35°36' E 139°47'0 0.0
2016-Feb-01 12:31N 35°36' E 139°47'0 0.0
2016-Feb-01 11:31N 35°36' E 139°47'0 0.0
2016-Feb-01 10:31N 35°36' E 139°47'0 0.0
2016-Feb-01 09:31N 35°36' E 139°47'0 0.0
2016-Feb-01 08:31N 35°36' E 139°47'0 0.0
2016-Feb-01 07:31N 35°36' E 139°47'0 0.0
2016-Feb-01 06:31N 35°36' E 139°47'6 6.2
2016-Feb-01 05:33N 35°32' E 139°52'1414.1
2016-Feb-01 04:33N 35°19' E 139°44'1110.7
2016-Feb-01 03:33N 35°08' E 139°46'1815.2
2016-Feb-01 02:20N 34°55' E 139°30'  
Track history (hours):
 
Tides and Currents Weather Stations Pressure Air Temp Water Temp Dewpoint Dewpoint Depression Visibility Wind Speed Wind Dir Waves Ship Positions

OOCL Nagoya

Last reported at 2016-Feb-10 17:12 UTC. Time now 2016-Feb-12 01:26 UTC.
Position N 22°05' E 114°21'.

Length 261 m; draft 11.5 m.

Type: Cargo ship. MMSI: 477627900.

Date/timePositionNaut miles runAvg speedWind from/ knotsBaromVisibWave heightAir tempDewpointWater temp
2016-Feb-10 17:12N 22°05' E 114°21'1115.1
2016-Feb-10 16:29N 22°11' E 114°11'1213.0
2016-Feb-10 15:33N 22°21' E 114°04'6 0.4
2016-Feb-10 02:29N 22°21' E 113°58'8 9.2
2016-Feb-10 01:33N 22°20' E 114°07'0 0.3
2016-Feb-10 00:23N 22°21' E 114°07'0 0.0
2016-Feb-09 23:32N 22°21' E 114°07'0 0.0
2016-Feb-09 22:32N 22°21' E 114°07'0 0.0
2016-Feb-09 21:20N 22°21' E 114°07'0 0.0
2016-Feb-09 20:29N 22°21' E 114°07'0 0.1
2016-Feb-09 19:32N 22°21' E 114°07'0 0.1
2016-Feb-09 18:32N 22°21' E 114°07'0 0.0
2016-Feb-09 12:29N 22°21' E 114°07'0 0.0
2016-Feb-09 11:08N 22°21' E 114°07'0 0.0
2016-Feb-09 10:32N 22°21' E 114°07'4 3.9
2016-Feb-09 09:33N 22°17' E 114°06'1110.5
2016-Feb-09 08:33N 22°09' E 114°14'1313.3
2016-Feb-09 07:32N 22°09' E 114°29'10213.5
2016-Feb-09 00:00N 22°18' E 116°18'19714.1 020 / 151008.510.8 1.017.013.720.0
2016-Feb-08 10:04N 22°31' E 119°50'713.9
2016-Feb-08 09:33N 22°31' E 119°58'1414.2
2016-Feb-08 08:33N 22°33' E 120°13'5 4.3
2016-Feb-08 07:19N 22°34' E 120°19'0 0.0
2016-Feb-08 06:31N 22°34' E 120°19'0 0.0
2016-Feb-08 05:25N 22°34' E 120°19'0 0.0
2016-Feb-08 04:31N 22°34' E 120°19'0 0.0
2016-Feb-08 03:31N 22°34' E 120°19'0 0.0
2016-Feb-08 02:25N 22°34' E 120°19'0 0.0
2016-Feb-08 01:19N 22°34' E 120°19'0 0.0
2016-Feb-08 00:31N 22°34' E 120°19'0 0.2
2016-Feb-07 23:33N 22°34' E 120°19'5 5.4
2016-Feb-07 22:33N 22°33' E 120°13'1110.7
2016-Feb-07 21:33N 22°42' E 120°07'1413.6
2016-Feb-07 20:34N 22°54' E 120°00'21014.4
2016-Feb-07 06:00N 26°00' E 121°48'   320 / 391009.510.8 1.018.0 7.017.0
2016-Feb-04 11:32N 33°58' E 134°55'1313.8
2016-Feb-04 10:33N 34°11' E 134°57'1313.4
2016-Feb-04 09:33N 34°24' E 135°02'1716.9
2016-Feb-04 08:33N 34°36' E 135°16'4 3.6
2016-Feb-04 07:28N 34°39' E 135°15'0 0.0
2016-Feb-04 06:28N 34°39' E 135°15'0 0.0
2016-Feb-04 05:28N 34°39' E 135°15'0 0.0
2016-Feb-04 04:28N 34°39' E 135°15'0 0.0
2016-Feb-04 03:28N 34°39' E 135°15'0 0.0
2016-Feb-04 02:16N 34°39' E 135°15'0 0.0
2016-Feb-04 01:28N 34°39' E 135°15'0 0.0
2016-Feb-04 00:28N 34°39' E 135°15'0 0.0
2016-Feb-03 23:28N 34°39' E 135°15'1 1.2
2016-Feb-03 22:33N 34°39' E 135°16'1111.4
2016-Feb-03 21:33N 34°29' E 135°10'1716.5
2016-Feb-03 20:33N 34°15' E 134°59'1313.0
2016-Feb-03 19:33N 34°02' E 134°58'241 5.3
2016-Feb-01 22:23N 35°05' E 139°40'1214.3
2016-Feb-01 21:33N 35°16' E 139°46'1212.1
2016-Feb-01 20:34N 35°28' E 139°48'8 8.4
2016-Feb-01 19:33N 35°36' E 139°47'0 0.2
2016-Feb-01 18:31N 35°36' E 139°47'0 0.0
2016-Feb-01 17:31N 35°36' E 139°47'0 0.0
2016-Feb-01 16:31N 35°36' E 139°47'0 0.0
2016-Feb-01 15:31N 35°36' E 139°47'0 0.0
2016-Feb-01 14:31N 35°36' E 139°47'0 0.0
2016-Feb-01 13:31N 35°36' E 139°47'0 0.0
2016-Feb-01 12:31N 35°36' E 139°47'0 0.0
2016-Feb-01 11:31N 35°36' E 139°47'0 0.0
2016-Feb-01 10:31N 35°36' E 139°47'0 0.0
2016-Feb-01 09:31N 35°36' E 139°47'0 0.0
2016-Feb-01 08:31N 35°36' E 139°47'0 0.0
2016-Feb-01 07:31N 35°36' E 139°47'0 0.0
2016-Feb-01 06:31N 35°36' E 139°47'6 6.2
2016-Feb-01 05:33N 35°32' E 139°52'1414.1
2016-Feb-01 04:33N 35°19' E 139°44'1110.7
2016-Feb-01 03:33N 35°08' E 139°46'1815.2
2016-Feb-01 02:20N 34°55' E 139°30'  

Dump ship's entire track history